createdAt,value
2022-10-13T00:01:39.776Z,8.36
2022-10-13T00:04:08.679Z,8.38
2022-10-13T00:06:37.881Z,8.39
2022-10-13T00:09:07.498Z,8.40
2022-10-13T00:11:36.531Z,8.40
2022-10-13T00:14:06.797Z,8.42
2022-10-13T00:16:39.707Z,8.43
2022-10-13T00:19:12.888Z,8.44
2022-10-13T00:21:43.898Z,8.46
2022-10-13T00:24:13.339Z,8.47
2022-10-13T00:26:42.373Z,8.48
2022-10-13T00:29:14.138Z,8.51
2022-10-13T00:31:44.574Z,8.52
2022-10-13T00:34:13.600Z,8.53
2022-10-13T00:36:42.721Z,8.54
2022-10-13T00:39:11.839Z,8.56
2022-10-13T00:41:40.780Z,8.57
2022-10-13T00:44:43.263Z,8.59
2022-10-13T00:47:13.757Z,8.60
2022-10-13T00:49:43.261Z,8.61
2022-10-13T00:52:12.813Z,8.62
2022-10-13T00:54:42.237Z,8.64
2022-10-13T00:57:12.107Z,8.66
2022-10-13T00:59:42.190Z,8.66
2022-10-13T01:02:12.695Z,8.67
2022-10-13T01:04:45.309Z,8.67
2022-10-13T01:07:15.961Z,8.70
2022-10-13T01:09:45.343Z,8.70
2022-10-13T01:12:27.748Z,8.71
2022-10-13T01:15:07.405Z,8.72
2022-10-13T01:17:45.115Z,8.73
2022-10-13T01:20:51.656Z,8.74
2022-10-13T01:23:40.527Z,8.77
2022-10-13T01:26:38.416Z,8.77
2022-10-13T01:29:19.457Z,8.79
2022-10-13T01:31:58.580Z,8.78
2022-10-13T01:34:34.217Z,8.80
2022-10-13T01:37:09.044Z,8.81
2022-10-13T01:39:44.242Z,8.81
2022-10-13T01:42:19.474Z,8.82
2022-10-13T01:44:52.795Z,8.84
2022-10-13T01:47:25.275Z,8.84
2022-10-13T01:49:56.161Z,8.86
2022-10-13T01:52:32.303Z,8.86
2022-10-13T01:55:08.930Z,8.87
2022-10-13T01:57:41.634Z,8.88
2022-10-13T02:00:14.659Z,8.88
2022-10-13T02:02:55.702Z,8.89
2022-10-13T02:05:33.706Z,8.90
2022-10-13T02:08:07.577Z,8.90
2022-10-13T02:10:46.760Z,8.91
2022-10-13T02:13:19.384Z,8.91
2022-10-13T02:15:51.872Z,8.92
2022-10-13T02:18:27.258Z,8.92
2022-10-13T02:20:57.134Z,8.94
2022-10-13T02:23:27.772Z,8.94
2022-10-13T02:25:58.481Z,8.94
2022-10-13T02:28:29.295Z,8.95
2022-10-13T02:31:20.417Z,8.95
2022-10-13T02:33:51.085Z,8.95
2022-10-13T02:36:20.056Z,8.97
2022-10-13T02:38:49.004Z,8.97
2022-10-13T02:41:18.253Z,8.98
2022-10-13T02:43:47.543Z,8.99
2022-10-13T02:46:16.560Z,8.98
2022-10-13T02:48:46.620Z,8.99
2022-10-13T02:51:17.093Z,8.99
2022-10-13T02:53:46.634Z,8.99
2022-10-13T02:56:15.582Z,8.99
2022-10-13T02:58:44.520Z,8.99
2022-10-13T03:01:16.525Z,9.00
2022-10-13T03:03:45.858Z,8.99
2022-10-13T03:06:16.177Z,9.00
2022-10-13T03:08:45.287Z,9.00
2022-10-13T03:11:14.654Z,9.00
2022-10-13T03:13:43.738Z,9.00
2022-10-13T03:16:12.699Z,9.00
2022-10-13T03:18:41.923Z,9.01
2022-10-13T03:21:12.378Z,9.00
2022-10-13T03:23:42.766Z,9.01
2022-10-13T03:26:12.087Z,9.02
2022-10-13T03:28:41.118Z,9.01
2022-10-13T03:31:12.856Z,9.02
2022-10-13T03:33:42.163Z,9.01
2022-10-13T03:36:13.367Z,9.03
2022-10-13T03:38:46.176Z,9.02
2022-10-13T03:41:18.356Z,9.02
2022-10-13T03:43:52.001Z,9.03
2022-10-13T03:46:21.282Z,9.02
2022-10-13T03:48:50.790Z,9.03
2022-10-13T03:51:21.928Z,9.03
2022-10-13T03:53:53.855Z,9.03
2022-10-13T03:56:26.236Z,9.04
2022-10-13T03:58:58.253Z,9.04
2022-10-13T04:01:30.172Z,9.03
2022-10-13T04:04:02.251Z,9.04
2022-10-13T04:06:32.686Z,9.05
2022-10-13T04:09:03.729Z,9.03
2022-10-13T04:11:33.443Z,9.03
2022-10-13T04:14:02.300Z,9.04
2022-10-13T04:16:32.919Z,9.02
2022-10-13T04:19:06.537Z,9.04
2022-10-13T04:21:36.716Z,9.03
2022-10-13T04:24:08.229Z,9.04
2022-10-13T04:26:38.245Z,9.04
2022-10-13T04:29:12.646Z,9.05
2022-10-13T04:31:43.885Z,9.04
2022-10-13T04:34:13.768Z,9.04
2022-10-13T04:36:43.036Z,9.05
2022-10-13T04:39:13.335Z,9.05
2022-10-13T04:41:42.676Z,9.05
2022-10-13T04:44:11.623Z,9.06
2022-10-13T04:46:40.631Z,9.05
2022-10-13T04:49:09.860Z,9.06
2022-10-13T04:51:40.523Z,9.06
2022-10-13T04:54:10.145Z,9.05
2022-10-13T04:56:40.488Z,9.04
2022-10-13T04:59:09.448Z,9.04
2022-10-13T05:01:39.132Z,9.03
2022-10-13T05:04:11.058Z,9.01
2022-10-13T05:07:05.433Z,9.00
2022-10-13T05:09:31.681Z,8.98
2022-10-13T05:12:02.174Z,8.97
2022-10-13T05:14:33.405Z,8.95
2022-10-13T05:17:03.279Z,8.93
2022-10-13T05:19:32.182Z,8.90
2022-10-13T05:22:01.403Z,8.89
2022-10-13T05:24:36.714Z,8.86
2022-10-13T05:27:10.852Z,8.82
2022-10-13T05:29:40.710Z,8.78
2022-10-13T05:32:10.095Z,8.75
2022-10-13T05:34:39.224Z,8.72
2022-10-13T05:37:08.455Z,8.68
2022-10-13T05:39:37.419Z,8.64
2022-10-13T05:42:08.017Z,8.59
2022-10-13T05:44:37.566Z,8.58
2022-10-13T05:47:07.603Z,8.54
2022-10-13T05:49:39.901Z,8.51
2022-10-13T05:52:12.461Z,8.46
2022-10-13T05:54:46.819Z,8.43
2022-10-13T05:57:20.511Z,8.40
2022-10-13T05:59:53.460Z,8.37
2022-10-13T06:02:25.424Z,8.33
2022-10-13T06:04:58.341Z,8.30
2022-10-13T06:07:27.658Z,8.27
2022-10-13T06:09:57.669Z,8.24
2022-10-13T06:12:28.310Z,8.19
2022-10-13T06:14:57.456Z,8.18
2022-10-13T06:17:26.423Z,8.15
2022-10-13T06:19:55.664Z,8.13
2022-10-13T06:22:24.670Z,8.11
2022-10-13T06:24:53.711Z,8.10
2022-10-13T06:27:22.860Z,8.08
2022-10-13T06:29:56.970Z,8.08
2022-10-13T06:32:26.530Z,8.08
2022-10-13T06:34:55.793Z,8.08
2022-10-13T06:37:27.459Z,8.08
2022-10-13T06:39:56.633Z,8.10
2022-10-13T06:42:25.951Z,8.11
2022-10-13T06:45:12.438Z,8.13
2022-10-13T06:47:42.899Z,8.14
2022-10-13T06:50:12.522Z,8.16
2022-10-13T06:52:41.474Z,8.18
2022-10-13T06:55:10.756Z,8.21
2022-10-13T06:57:39.956Z,8.24
2022-10-13T07:00:12.511Z,8.26
2022-10-13T07:02:41.891Z,8.30
2022-10-13T07:05:11.025Z,8.34
2022-10-13T07:07:40.222Z,8.37
2022-10-13T07:10:09.827Z,8.40
2022-10-13T07:12:39.129Z,8.45
2022-10-13T07:15:09.278Z,8.49
2022-10-13T07:17:39.677Z,8.53
2022-10-13T07:20:10.256Z,8.58
2022-10-13T07:22:39.184Z,8.64
2022-10-13T07:25:09.304Z,8.68
2022-10-13T07:27:40.830Z,8.73
2022-10-13T07:30:11.380Z,8.77
2022-10-13T07:32:42.580Z,8.83
2022-10-13T07:35:12.175Z,8.87
2022-10-13T07:37:41.548Z,8.91
2022-10-13T07:40:11.797Z,8.96
2022-10-13T07:42:41.023Z,9.00
2022-10-13T07:45:10.996Z,9.05
2022-10-13T07:47:41.736Z,9.10
2022-10-13T07:50:11.967Z,9.14
2022-10-13T07:52:41.237Z,9.18
2022-10-13T07:55:13.400Z,9.24
2022-10-13T07:57:42.846Z,9.28
2022-10-13T08:00:12.869Z,9.33
2022-10-13T08:02:43.484Z,9.37
2022-10-13T08:05:12.490Z,9.43
2022-10-13T08:07:41.650Z,9.49
2022-10-13T08:10:11.095Z,9.54
2022-10-13T08:12:40.011Z,9.59
2022-10-13T08:15:11.800Z,9.65
2022-10-13T08:17:42.555Z,9.70
2022-10-13T08:20:12.166Z,9.78
2022-10-13T08:22:41.307Z,9.85
2022-10-13T08:25:11.346Z,9.90
2022-10-13T08:27:50.737Z,9.95
2022-10-13T08:30:22.504Z,10.02
2022-10-13T08:32:53.160Z,10.09
2022-10-13T08:35:22.204Z,10.15
2022-10-13T08:37:51.551Z,10.22
2022-10-13T08:40:23.960Z,10.27
2022-10-13T08:42:56.716Z,10.34
2022-10-13T08:45:46.943Z,10.41
2022-10-13T08:48:20.403Z,10.48
2022-10-13T08:50:53.047Z,10.55
2022-10-13T08:53:29.434Z,10.62
2022-10-13T08:56:01.562Z,10.68
2022-10-13T08:58:33.694Z,10.75
2022-10-13T09:01:13.329Z,10.83
2022-10-13T09:03:52.437Z,10.91
2022-10-13T09:06:28.649Z,10.96
2022-10-13T09:09:00.862Z,11.04
2022-10-13T09:11:32.414Z,11.12
2022-10-13T09:14:03.855Z,11.18
2022-10-13T09:16:38.473Z,11.27
2022-10-13T09:19:23.513Z,11.34
2022-10-13T09:21:54.902Z,11.41
2022-10-13T09:24:26.124Z,11.48
2022-10-13T09:27:07.299Z,11.55
2022-10-13T09:29:40.979Z,11.61
2022-10-13T09:32:20.643Z,11.68
2022-10-13T09:34:51.938Z,11.77
2022-10-13T09:37:23.547Z,11.83
2022-10-13T09:40:07.475Z,11.90
2022-10-13T09:42:37.200Z,11.98
2022-10-13T09:45:16.862Z,12.04
2022-10-13T09:47:53.123Z,12.12
2022-10-13T09:50:26.897Z,12.18
2022-10-13T09:53:10.697Z,12.25
2022-10-13T09:55:39.793Z,12.34
2022-10-13T09:58:17.063Z,12.41
2022-10-13T10:00:47.900Z,12.47
2022-10-13T10:03:23.209Z,12.54
2022-10-13T10:05:56.481Z,12.61
2022-10-13T10:08:33.988Z,12.68
2022-10-13T10:11:16.628Z,12.75
2022-10-13T10:13:45.972Z,12.81
2022-10-13T10:16:21.010Z,12.86
2022-10-13T10:18:58.592Z,12.91
2022-10-13T10:21:37.612Z,12.99
2022-10-13T10:24:18.276Z,13.05
2022-10-13T10:26:55.626Z,13.10
2022-10-13T10:29:38.134Z,13.18
2022-10-13T10:32:22.671Z,13.23
2022-10-13T10:34:58.455Z,13.30
2022-10-13T10:37:52.616Z,13.35
2022-10-13T10:40:35.817Z,13.42
2022-10-13T10:43:27.341Z,13.47
2022-10-13T10:45:59.814Z,13.50
2022-10-13T10:48:37.588Z,13.54
2022-10-13T10:51:09.661Z,13.58
2022-10-13T10:53:51.059Z,13.64
2022-10-13T10:56:31.285Z,13.69
2022-10-13T10:59:17.087Z,13.72
2022-10-13T11:01:53.117Z,13.77
2022-10-13T11:04:42.508Z,13.83
2022-10-13T11:07:35.789Z,13.87
2022-10-13T11:10:22.120Z,13.93
2022-10-13T11:13:27.394Z,13.97
2022-10-13T11:15:57.037Z,14.02
2022-10-13T11:19:06.005Z,14.05
2022-10-13T11:22:23.848Z,14.12
2022-10-13T11:25:29.473Z,14.16
2022-10-13T11:28:00.253Z,14.22
2022-10-13T11:30:50.943Z,14.26
2022-10-13T11:33:58.957Z,14.31
2022-10-13T11:36:49.344Z,14.36
2022-10-13T11:39:45.151Z,14.41
2022-10-13T11:42:41.792Z,14.45
2022-10-13T11:45:39.400Z,14.50
2022-10-13T11:48:42.128Z,14.54
2022-10-13T11:51:23.714Z,14.59
2022-10-13T11:53:59.084Z,14.64
2022-10-13T11:56:39.458Z,14.68
2022-10-13T11:59:22.943Z,14.76
2022-10-13T12:01:58.084Z,14.79
2022-10-13T12:04:29.566Z,14.84
2022-10-13T12:07:02.622Z,14.89
2022-10-13T12:09:33.658Z,14.93
2022-10-13T12:12:07.447Z,14.95
2022-10-13T12:14:40.795Z,14.99
2022-10-13T12:17:24.370Z,15.02
2022-10-13T12:19:54.129Z,15.06
2022-10-13T12:22:22.969Z,15.08
2022-10-13T12:25:04.396Z,15.11
2022-10-13T12:27:42.619Z,15.13
2022-10-13T12:30:23.249Z,15.14
2022-10-13T12:32:55.850Z,15.16
2022-10-13T12:35:28.044Z,15.19
2022-10-13T12:37:58.603Z,15.20
2022-10-13T12:40:28.640Z,15.24
2022-10-13T12:42:58.097Z,15.27
2022-10-13T12:45:34.008Z,15.29
2022-10-13T12:48:05.031Z,15.32
2022-10-13T12:50:37.900Z,15.34
2022-10-13T12:53:22.999Z,15.37
2022-10-13T12:55:59.094Z,15.39
2022-10-13T12:58:31.583Z,15.40
2022-10-13T13:01:08.989Z,15.42
2022-10-13T13:03:41.211Z,15.44
2022-10-13T13:06:21.977Z,15.46
2022-10-13T13:09:23.694Z,15.49
2022-10-13T13:12:23.573Z,15.56
2022-10-13T13:14:55.231Z,15.67
2022-10-13T13:20:28.745Z,16.06
2022-10-13T13:22:58.255Z,16.28
2022-10-13T13:25:27.909Z,16.54
2022-10-13T13:27:56.897Z,16.78
2022-10-13T13:30:26.255Z,17.06
2022-10-13T13:32:55.415Z,17.36
2022-10-13T13:35:25.830Z,17.68
2022-10-13T13:37:55.199Z,17.99
2022-10-13T13:40:26.134Z,18.31
2022-10-13T13:42:55.867Z,18.64
2022-10-13T13:45:29.033Z,18.98
2022-10-13T13:48:00.878Z,19.33
2022-10-13T13:50:36.615Z,19.68
2022-10-13T13:53:06.401Z,20.06
2022-10-13T13:55:36.417Z,20.42
2022-10-13T13:58:07.611Z,20.77
2022-10-13T14:00:36.897Z,21.12
2022-10-13T14:03:06.201Z,21.46
2022-10-13T14:05:40.627Z,21.77
2022-10-13T14:08:11.032Z,22.09
2022-10-13T14:10:40.438Z,22.39
2022-10-13T14:13:09.391Z,22.66
2022-10-13T14:15:38.622Z,22.90
2022-10-13T14:18:07.386Z,23.04
2022-10-13T14:20:41.651Z,23.15
2022-10-13T14:23:10.876Z,23.27
2022-10-13T14:25:40.262Z,23.41
2022-10-13T14:28:09.539Z,23.49
2022-10-13T14:30:41.498Z,23.49
2022-10-13T14:33:10.972Z,23.37
2022-10-13T14:35:41.448Z,23.11
2022-10-13T14:38:14.719Z,22.80
2022-10-13T14:40:45.122Z,22.43
2022-10-13T14:43:14.213Z,22.03
2022-10-13T14:45:43.744Z,21.61
2022-10-13T14:48:15.177Z,21.23
2022-10-13T14:50:45.660Z,20.85
2022-10-13T14:53:15.557Z,20.50
2022-10-13T14:55:44.740Z,20.17
2022-10-13T14:58:13.494Z,19.86
2022-10-13T15:00:43.615Z,19.56
2022-10-13T15:03:12.768Z,19.26
2022-10-13T15:05:41.507Z,19.02
2022-10-13T15:08:12.040Z,18.77
2022-10-13T15:10:41.129Z,18.53
2022-10-13T15:13:10.067Z,18.31
2022-10-13T15:15:39.811Z,18.10
2022-10-13T15:18:08.594Z,17.91
2022-10-13T15:20:37.681Z,17.69
2022-10-13T15:23:07.898Z,17.51
2022-10-13T15:25:38.764Z,17.33
2022-10-13T15:28:08.277Z,17.14
2022-10-13T15:30:37.570Z,16.97
2022-10-13T15:33:10.905Z,16.81
2022-10-13T15:35:39.916Z,16.65
2022-10-13T15:38:09.781Z,16.52
2022-10-13T15:40:42.548Z,16.37
2022-10-13T15:43:12.130Z,16.24
2022-10-13T15:45:40.993Z,16.12
2022-10-13T15:48:12.035Z,16.00
2022-10-13T15:50:41.904Z,15.87
2022-10-13T15:53:11.235Z,15.75
2022-10-13T15:55:41.808Z,15.63
2022-10-13T15:58:13.698Z,15.54
2022-10-13T16:00:43.781Z,15.43
2022-10-13T16:03:16.246Z,15.33
2022-10-13T16:05:46.290Z,15.23
2022-10-13T16:08:15.814Z,15.13
2022-10-13T16:10:46.317Z,15.04
2022-10-13T16:13:16.871Z,14.94
2022-10-13T16:15:46.011Z,14.84
2022-10-13T16:18:14.958Z,14.75
2022-10-13T16:20:45.437Z,14.67
2022-10-13T16:23:14.717Z,14.58
2022-10-13T16:25:45.003Z,14.50
2022-10-13T16:28:15.061Z,14.43
2022-10-13T16:30:44.766Z,14.35
2022-10-13T16:33:13.779Z,14.27
2022-10-13T16:35:42.929Z,14.20
2022-10-13T16:38:12.262Z,14.14
2022-10-13T16:40:41.572Z,14.06
2022-10-13T16:43:11.970Z,14.00
2022-10-13T16:45:59.200Z,13.93
2022-10-13T16:48:30.523Z,13.84
2022-10-13T16:51:00.860Z,13.79
2022-10-13T16:53:31.870Z,13.72
2022-10-13T16:56:01.018Z,13.67
2022-10-13T16:58:31.531Z,13.60
2022-10-13T17:01:06.412Z,13.53
2022-10-13T17:03:35.540Z,13.48
2022-10-13T17:06:05.551Z,13.41
2022-10-13T17:08:35.017Z,13.34
2022-10-13T17:11:05.368Z,13.29
2022-10-13T17:13:37.300Z,13.20
2022-10-13T17:16:07.203Z,13.15
2022-10-13T17:18:35.941Z,13.09
2022-10-13T17:21:08.340Z,13.03
2022-10-13T17:23:37.927Z,12.95
2022-10-13T17:26:09.131Z,12.90
2022-10-13T17:28:41.971Z,12.83
2022-10-13T17:31:14.389Z,12.78
2022-10-13T17:33:44.234Z,12.73
2022-10-13T17:36:16.057Z,12.67
2022-10-13T17:38:45.292Z,12.62
2022-10-13T17:41:14.634Z,12.57
2022-10-13T17:43:53.230Z,12.51
2022-10-13T17:46:36.431Z,12.47
2022-10-13T17:49:07.489Z,12.44
2022-10-13T17:51:37.032Z,12.39
2022-10-13T18:06:20.968Z,12.20
2022-10-13T18:08:51.427Z,12.19
2022-10-13T18:11:25.725Z,12.15
2022-10-13T18:13:55.009Z,12.09
2022-10-13T18:16:24.928Z,12.02
2022-10-13T18:18:55.612Z,11.94
2022-10-13T18:21:27.266Z,11.88
2022-10-13T18:23:57.428Z,11.80
2022-10-13T18:26:28.195Z,11.72
2022-10-13T18:28:58.161Z,11.65
2022-10-13T18:31:29.855Z,11.58
2022-10-13T18:34:03.768Z,11.51
2022-10-13T18:36:36.505Z,11.43
2022-10-13T18:39:15.181Z,11.34
2022-10-13T18:41:48.023Z,11.27
2022-10-13T18:44:17.941Z,11.19
2022-10-13T18:46:57.468Z,11.12
2022-10-13T18:49:31.526Z,11.03
2022-10-13T18:52:03.396Z,10.94
2022-10-13T18:54:33.222Z,10.86
2022-10-13T18:57:05.803Z,10.79
2022-10-13T18:59:38.776Z,10.70
2022-10-13T19:02:08.218Z,10.63
2022-10-13T19:04:37.533Z,10.56
2022-10-13T19:07:07.787Z,10.51
2022-10-13T19:09:37.093Z,10.45
2022-10-13T19:12:08.928Z,10.38
2022-10-13T19:14:38.338Z,10.31
2022-10-13T19:17:07.381Z,10.26
2022-10-13T19:19:41.595Z,10.18
2022-10-13T19:22:12.851Z,10.12
2022-10-13T19:24:43.283Z,10.06
2022-10-13T19:27:13.058Z,10.00
2022-10-13T19:29:42.797Z,9.93
2022-10-13T19:32:11.725Z,9.86
2022-10-13T19:34:40.729Z,9.80
2022-10-13T19:37:16.656Z,9.72
2022-10-13T19:39:45.742Z,9.66
2022-10-13T19:42:14.871Z,9.59
2022-10-13T19:44:47.165Z,9.52
2022-10-13T19:47:16.484Z,9.46
2022-10-13T19:49:47.436Z,9.37
2022-10-13T19:52:19.568Z,9.31
2022-10-13T19:54:49.478Z,9.24
2022-10-13T19:57:19.071Z,9.18
2022-10-13T19:59:48.375Z,9.12
2022-10-13T20:02:17.510Z,9.06
2022-10-13T20:04:46.624Z,8.99
2022-10-13T20:07:18.987Z,8.94
2022-10-13T20:09:48.812Z,8.89
2022-10-13T20:12:17.797Z,8.82
2022-10-13T20:14:48.509Z,8.77
2022-10-13T20:17:17.752Z,8.72
2022-10-13T20:19:46.839Z,8.66
2022-10-13T20:22:15.855Z,8.59
2022-10-13T20:24:46.416Z,8.54
2022-10-13T20:27:15.984Z,8.51
2022-10-13T20:29:44.935Z,8.44
2022-10-13T20:32:17.679Z,8.40
2022-10-13T20:34:46.708Z,8.35
2022-10-13T20:37:15.648Z,8.32
2022-10-13T20:39:47.842Z,8.28
2022-10-13T20:42:16.852Z,8.25
2022-10-13T20:44:46.085Z,8.22
2022-10-13T20:47:15.265Z,8.20
2022-10-13T20:49:44.219Z,8.17
2022-10-13T20:52:13.432Z,8.15
2022-10-13T20:54:42.333Z,8.12
2022-10-13T20:57:12.857Z,8.11
2022-10-13T20:59:43.582Z,8.12
2022-10-13T21:02:14.732Z,8.10
2022-10-13T21:04:44.008Z,8.10
2022-10-13T21:07:13.214Z,8.10
2022-10-13T21:09:42.420Z,8.10
2022-10-13T21:12:12.740Z,8.13
2022-10-13T21:14:41.928Z,8.13
2022-10-13T21:17:11.064Z,8.14
2022-10-13T21:19:40.967Z,8.15
2022-10-13T21:22:10.010Z,8.16
2022-10-13T21:24:39.595Z,8.18
2022-10-13T21:27:08.644Z,8.19
2022-10-13T21:29:39.312Z,8.21
2022-10-13T21:32:08.794Z,8.22
2022-10-13T21:34:37.990Z,8.22
2022-10-13T21:37:07.060Z,8.22
2022-10-13T21:39:36.368Z,8.23
2022-10-13T21:42:05.434Z,8.23
2022-10-13T21:44:35.043Z,8.21
2022-10-13T21:47:10.357Z,8.21
2022-10-13T21:49:40.149Z,8.21
2022-10-13T21:52:09.049Z,8.18
2022-10-13T21:54:38.560Z,8.18
2022-10-13T21:57:07.927Z,8.16
2022-10-13T21:59:36.987Z,8.14
2022-10-13T22:02:06.360Z,8.12
2022-10-13T22:04:36.892Z,8.10
2022-10-13T22:07:06.308Z,8.08
2022-10-13T22:09:35.354Z,8.07
2022-10-13T22:12:04.394Z,8.04
2022-10-13T22:14:33.541Z,8.02
2022-10-13T22:17:02.704Z,8.01
2022-10-13T22:19:31.788Z,7.99
2022-10-13T22:22:02.289Z,7.96
2022-10-13T22:24:31.628Z,7.95
2022-10-13T22:27:00.659Z,7.94
2022-10-13T22:29:29.746Z,7.92
2022-10-13T22:32:00.379Z,7.91
2022-10-13T22:34:29.650Z,7.88
2022-10-13T22:36:58.653Z,7.85
2022-10-13T22:39:29.243Z,7.83
2022-10-13T22:42:03.274Z,7.82
2022-10-13T22:44:34.810Z,7.80
2022-10-13T22:47:03.889Z,7.77
2022-10-13T22:49:32.849Z,7.76
2022-10-13T22:52:02.371Z,7.75
2022-10-13T22:54:32.844Z,7.72
2022-10-13T22:57:01.909Z,7.71
2022-10-13T22:59:31.080Z,7.69
2022-10-13T23:02:00.227Z,7.68
2022-10-13T23:04:30.445Z,7.67
2022-10-13T23:06:59.903Z,7.66
2022-10-13T23:09:29.007Z,7.66
2022-10-13T23:12:00.001Z,7.66
2022-10-13T23:14:30.296Z,7.66
2022-10-13T23:16:59.394Z,7.66
2022-10-13T23:19:28.576Z,7.66
2022-10-13T23:21:57.969Z,7.66
2022-10-13T23:24:27.071Z,7.66
2022-10-13T23:27:00.305Z,7.68
2022-10-13T23:29:30.927Z,7.68
2022-10-13T23:32:00.022Z,7.71
2022-10-13T23:34:29.273Z,7.73
2022-10-13T23:36:58.568Z,7.75
2022-10-13T23:39:29.526Z,7.76
2022-10-13T23:41:59.129Z,7.77
2022-10-13T23:44:29.975Z,7.80
2022-10-13T23:47:00.687Z,7.82
2022-10-13T23:49:30.147Z,7.84
2022-10-13T23:51:59.146Z,7.85
2022-10-13T23:54:28.103Z,7.86
2022-10-13T23:56:57.386Z,7.86
2022-10-13T23:59:26.646Z,7.87
